Time;durP1;ratioP1;P1;durP2;ratioP2;P2;SDS_P1;SDS_P2;PMS_P1;PMS_P2;Temp;Humidity;BMP_temperature;BMP_pressure;BME280_temperature;BME280_humidity;BME280_pressure;Samples;Min_cycle;Max_cycle;Signal;HPM_P1;HPM_P2
2023/07/20 00:00:35;;;;;;;7.20;3.05;;;26.10;66.00;;;;;;4988610;28;20027;-52
2023/07/20 00:03:12;;;;;;;5.63;2.92;;;26.10;66.10;;;;;;4986838;28;20029;-52
2023/07/20 00:05:38;;;;;;;7.18;3.15;;;26.10;66.00;;;;;;4988324;28;20146;-51
2023/07/20 00:08:03;;;;;;;8.20;3.13;;;26.10;66.10;;;;;;4971027;28;20054;-51
2023/07/20 00:10:29;;;;;;;4.60;2.67;;;26.00;66.10;;;;;;4988635;28;20041;-52
2023/07/20 00:12:54;;;;;;;4.40;2.58;;;26.00;66.20;;;;;;4986513;28;20442;-52
2023/07/20 00:15:20;;;;;;;5.43;2.70;;;26.00;66.30;;;;;;4988386;28;20031;-51
2023/07/20 00:17:46;;;;;;;5.78;2.75;;;26.00;66.30;;;;;;4988370;28;20364;-52
2023/07/20 00:20:11;;;;;;;4.78;2.90;;;25.90;66.30;;;;;;4988391;28;20060;-52
2023/07/20 00:22:37;;;;;;;7.50;2.72;;;25.90;66.40;;;;;;4985241;28;20082;-52
2023/07/20 00:25:03;;;;;;;4.80;2.65;;;25.90;66.40;;;;;;4986943;28;20035;-52
2023/07/20 00:27:28;;;;;;;5.25;2.90;;;25.90;66.60;;;;;;4987816;28;20031;-52
2023/07/20 00:29:54;;;;;;;8.18;2.78;;;25.90;66.50;;;;;;4986668;28;20034;-52
2023/07/20 00:32:19;;;;;;;4.90;2.70;;;25.80;66.50;;;;;;4986889;28;20049;-51
2023/07/20 00:34:45;;;;;;;5.00;2.72;;;25.80;66.60;;;;;;4987953;28;20039;-52
2023/07/20 00:37:10;;;;;;;7.05;3.10;;;25.80;66.70;;;;;;4986591;28;20023;-51
2023/07/20 00:39:36;;;;;;;8.45;2.70;;;25.80;66.70;;;;;;4985035;28;20076;-52
2023/07/20 00:42:01;;;;;;;3.70;2.53;;;25.80;66.80;;;;;;4987335;28;20031;-52
2023/07/20 00:44:27;;;;;;;5.28;2.28;;;25.70;66.70;;;;;;4987883;28;20041;-52
2023/07/20 00:46:52;;;;;;;5.80;2.42;;;25.70;66.70;;;;;;4988040;28;20042;-51
2023/07/20 00:49:21;;;;;;;4.28;2.70;;;25.70;66.80;;;;;;4985041;28;20466;-52
2023/07/20 00:51:46;;;;;;;4.63;2.53;;;25.70;66.80;;;;;;4986580;28;20034;-51
2023/07/20 00:54:12;;;;;;;4.00;2.38;;;25.70;66.90;;;;;;4986233;28;20399;-52
2023/07/20 00:56:37;;;;;;;5.78;2.60;;;25.60;67.00;;;;;;4986525;28;20034;-51
2023/07/20 00:59:03;;;;;;;6.70;2.45;;;25.60;67.00;;;;;;4964800;29;20028;-52
2023/07/20 01:01:28;;;;;;;6.15;2.40;;;25.60;67.00;;;;;;4966987;29;20051;-52
2023/07/20 01:03:54;;;;;;;6.70;2.90;;;25.60;67.00;;;;;;4968129;28;20078;-51
2023/07/20 01:06:48;;;;;;;7.15;2.63;;;25.50;67.00;;;;;;4967117;29;20027;-51
2023/07/20 01:09:16;;;;;;;4.53;2.28;;;25.60;67.20;;;;;;4941845;28;20081;-51
2023/07/20 01:11:58;;;;;;;8.18;2.90;;;25.50;67.20;;;;;;4970074;28;20031;-51
2023/07/20 01:14:23;;;;;;;4.80;2.50;;;25.50;67.20;;;;;;4986235;28;20042;-52
2023/07/20 01:16:52;;;;;;;5.57;2.20;;;25.50;67.20;;;;;;4968336;28;20023;-52
2023/07/20 01:19:17;;;;;;;3.80;2.33;;;25.50;67.10;;;;;;4987525;28;20069;-51
2023/07/20 01:21:51;;;;;;;2.85;2.05;;;25.50;67.20;;;;;;4986235;28;20030;-52
2023/07/20 01:24:50;;;;;;;3.92;2.33;;;25.50;67.20;;;;;;4986068;28;20097;-51
2023/07/20 01:27:42;;;;;;;4.93;2.40;;;25.40;67.20;;;;;;4985783;28;20046;-52
2023/07/20 01:30:29;;;;;;;3.40;2.33;;;25.40;67.20;;;;;;4977847;28;20117;-51
2023/07/20 01:32:54;;;;;;;3.95;2.33;;;25.40;67.30;;;;;;4987411;28;20057;-51
2023/07/20 01:35:20;;;;;;;6.75;2.20;;;25.40;67.30;;;;;;4988109;28;20039;-51
2023/07/20 01:37:46;;;;;;;4.22;2.25;;;25.40;67.40;;;;;;4990017;28;20112;-50
2023/07/20 01:40:12;;;;;;;5.13;2.63;;;25.30;67.50;;;;;;4990111;28;20087;-51
2023/07/20 01:42:38;;;;;;;5.38;2.13;;;25.30;67.50;;;;;;4989703;28;20101;-51
2023/07/20 01:45:04;;;;;;;7.72;2.22;;;25.30;67.50;;;;;;4988013;28;20483;-51
2023/07/20 01:47:29;;;;;;;4.53;1.95;;;25.30;67.60;;;;;;4973623;28;20038;-51
2023/07/20 01:49:55;;;;;;;6.00;2.35;;;25.30;67.70;;;;;;4989701;28;20399;-51
2023/07/20 01:52:20;;;;;;;5.70;2.22;;;25.30;67.80;;;;;;4988596;28;20055;-51
2023/07/20 01:54:46;;;;;;;6.55;2.00;;;25.30;67.80;;;;;;4990006;28;20049;-52
2023/07/20 01:57:11;;;;;;;3.17;1.95;;;25.30;67.80;;;;;;4990891;28;20034;-51
2023/07/20 01:59:37;;;;;;;4.47;2.22;;;25.20;67.70;;;;;;4990751;28;20038;-51
2023/07/20 02:02:03;;;;;;;6.65;2.00;;;25.20;67.80;;;;;;4988538;28;20022;-51
2023/07/20 02:04:28;;;;;;;3.83;2.20;;;25.20;67.80;;;;;;4990764;28;20501;-51
2023/07/20 02:06:54;;;;;;;4.28;2.17;;;25.20;67.90;;;;;;4989471;28;20049;-51
2023/07/20 02:09:20;;;;;;;3.65;2.10;;;25.20;67.90;;;;;;4990539;28;20049;-51
2023/07/20 02:11:45;;;;;;;2.97;1.90;;;25.10;67.80;;;;;;4988160;28;20505;-51
2023/07/20 02:14:11;;;;;;;3.67;2.17;;;25.20;68.00;;;;;;4990795;28;20027;-52
2023/07/20 02:16:36;;;;;;;2.80;1.90;;;25.10;68.00;;;;;;4989415;28;20051;-51
2023/07/20 02:19:03;;;;;;;2.80;2.08;;;25.10;68.10;;;;;;4973083;28;20062;-52
2023/07/20 02:21:29;;;;;;;4.35;2.28;;;25.10;68.10;;;;;;4988210;28;20476;-52
2023/07/20 02:23:54;;;;;;;3.20;2.00;;;25.00;68.10;;;;;;4989028;28;20089;-51
2023/07/20 02:26:20;;;;;;;3.42;1.92;;;25.10;68.30;;;;;;4973123;28;20031;-52
2023/07/20 02:28:45;;;;;;;2.70;1.55;;;25.00;68.10;;;;;;4988215;28;20038;-51
2023/07/20 02:31:11;;;;;;;3.65;1.92;;;25.00;68.10;;;;;;4987920;28;20038;-51
2023/07/20 02:33:37;;;;;;;3.47;1.80;;;25.00;68.30;;;;;;4988902;28;20058;-51
2023/07/20 02:36:02;;;;;;;2.85;2.00;;;25.00;68.30;;;;;;4990254;28;20099;-52
2023/07/20 02:38:28;;;;;;;4.60;2.15;;;25.00;68.30;;;;;;4988216;28;20027;-52
2023/07/20 02:40:53;;;;;;;3.08;1.95;;;25.00;68.30;;;;;;4972634;28;20027;-51
2023/07/20 02:43:19;;;;;;;2.58;1.85;;;24.90;68.30;;;;;;4988586;28;20027;-51
2023/07/20 02:45:44;;;;;;;5.55;2.13;;;24.90;68.20;;;;;;4987551;28;20069;-52
2023/07/20 02:48:10;;;;;;;6.50;1.80;;;24.90;68.40;;;;;;4986739;28;20026;-51
2023/07/20 02:50:36;;;;;;;6.60;1.83;;;24.90;68.40;;;;;;4989981;28;20026;-52
2023/07/20 02:53:02;;;;;;;2.75;1.70;;;24.90;68.30;;;;;;4989958;28;20030;-52
2023/07/20 02:55:27;;;;;;;6.18;2.05;;;24.90;68.40;;;;;;4988464;28;20034;-52
2023/07/20 02:57:53;;;;;;;5.10;1.92;;;24.90;68.30;;;;;;4986670;28;20042;-52
2023/07/20 03:00:19;;;;;;;3.72;1.85;;;24.90;68.30;;;;;;4988555;28;20027;-51
2023/07/20 03:02:47;;;;;;;3.58;1.92;;;24.90;68.40;;;;;;4988257;28;20050;-51
2023/07/20 03:05:13;;;;;;;3.35;1.92;;;24.90;68.30;;;;;;4987621;28;20043;-52
2023/07/20 03:07:39;;;;;;;4.78;1.80;;;24.90;68.40;;;;;;4988279;28;20109;-52
2023/07/20 03:10:08;;;;;;;3.08;2.05;;;24.90;68.50;;;;;;4988465;28;20054;-51
2023/07/20 03:12:34;;;;;;;2.67;1.98;;;24.80;68.50;;;;;;4989429;28;20035;-51
2023/07/20 03:15:00;;;;;;;4.97;2.50;;;24.80;68.50;;;;;;4987354;28;20101;-52
2023/07/20 03:17:25;;;;;;;2.80;2.20;;;24.80;68.60;;;;;;4987852;28;20031;-51
2023/07/20 03:19:51;;;;;;;2.80;2.30;;;24.80;68.60;;;;;;4989217;28;20034;-52
2023/07/20 03:22:17;;;;;;;4.00;2.42;;;24.80;68.60;;;;;;4987965;28;20030;-52
2023/07/20 03:24:42;;;;;;;3.60;2.42;;;24.80;68.60;;;;;;4986608;28;20082;-52
2023/07/20 03:27:08;;;;;;;4.90;2.78;;;24.80;68.70;;;;;;4972497;28;20105;-51
2023/07/20 03:29:33;;;;;;;6.03;3.95;;;24.80;68.70;;;;;;4989246;28;20391;-51
2023/07/20 03:31:59;;;;;;;4.80;3.40;;;24.70;68.60;;;;;;4987757;28;20051;-51
2023/07/20 03:34:25;;;;;;;58.50;11.75;;;24.80;68.70;;;;;;4985808;28;20050;-52
2023/07/20 03:36:50;;;;;;;43.97;6.97;;;24.80;68.70;;;;;;4989077;28;20061;-51
2023/07/20 03:39:16;;;;;;;34.25;6.57;;;24.80;69.50;;;;;;4989497;28;20042;-52
2023/07/20 03:41:42;;;;;;;56.95;8.57;;;24.70;68.80;;;;;;4988625;28;20042;-51
2023/07/20 03:44:08;;;;;;;34.40;6.78;;;24.70;68.80;;;;;;4986338;28;20030;-51
2023/07/20 03:46:34;;;;;;;34.90;6.03;;;24.70;68.80;;;;;;4988741;28;20042;-51
2023/07/20 03:49:00;;;;;;;21.55;6.20;;;24.70;68.80;;;;;;4987492;28;20069;-52
2023/07/20 03:51:26;;;;;;;24.33;7.22;;;24.70;68.90;;;;;;4985737;28;20035;-52
2023/07/20 03:53:51;;;;;;;26.50;8.40;;;24.70;68.90;;;;;;4987198;28;20039;-52
2023/07/20 03:56:17;;;;;;;32.03;7.55;;;24.60;68.80;;;;;;4988636;28;20085;-51
2023/07/20 03:58:42;;;;;;;28.80;8.95;;;24.60;68.80;;;;;;4987298;28;20400;-51
2023/07/20 04:01:09;;;;;;;42.65;14.98;;;24.70;68.90;;;;;;4985421;28;20042;-51
2023/07/20 04:03:35;;;;;;;70.13;27.58;;;24.60;68.80;;;;;;4987269;28;20031;-52
2023/07/20 04:06:01;;;;;;;84.18;33.13;;;24.60;69.00;;;;;;4988519;28;20050;-51
2023/07/20 04:08:26;;;;;;;89.38;34.13;;;24.60;69.00;;;;;;4988586;28;20110;-52
2023/07/20 04:10:52;;;;;;;82.68;33.97;;;24.60;69.00;;;;;;4969825;28;20062;-51
2023/07/20 04:13:18;;;;;;;95.22;40.80;;;24.60;69.00;;;;;;4988405;28;20098;-51
2023/07/20 04:15:43;;;;;;;75.30;37.03;;;24.60;69.10;;;;;;4970756;28;20045;-51
2023/07/20 04:18:09;;;;;;;102.65;42.92;;;24.60;69.10;;;;;;4986045;28;20090;-51
2023/07/20 04:20:34;;;;;;;96.82;40.83;;;24.60;69.10;;;;;;4987862;28;20046;-51
2023/07/20 04:23:00;;;;;;;113.55;43.53;;;24.60;69.20;;;;;;4988159;28;20031;-51
2023/07/20 04:25:25;;;;;;;108.43;42.28;;;24.60;69.10;;;;;;4987009;28;20099;-51
2023/07/20 04:27:55;;;;;;;112.32;43.03;;;24.60;69.10;;;;;;4985068;28;20030;-51
2023/07/20 04:30:22;;;;;;;99.68;39.83;;;24.60;69.10;;;;;;4987869;28;20031;-51
2023/07/20 04:32:48;;;;;;;98.47;39.35;;;24.60;69.10;;;;;;4987715;28;20031;-52
2023/07/20 04:35:38;;;;;;;90.53;38.47;;;24.50;69.20;;;;;;4988018;28;20035;-51
2023/07/20 04:38:03;;;;;;;95.70;36.30;;;24.50;69.10;;;;;;4971856;28;20027;-52
2023/07/20 04:40:29;;;;;;;87.13;36.75;;;24.50;69.10;;;;;;4987587;28;20038;-51
2023/07/20 04:42:54;;;;;;;90.35;34.63;;;24.50;69.10;;;;;;4987270;28;20053;-51
2023/07/20 04:45:22;;;;;;;70.72;32.03;;;24.50;69.10;;;;;;4987405;28;20045;-52
2023/07/20 04:47:50;;;;;;;86.68;34.65;;;24.50;69.10;;;;;;4986582;28;20107;-52
2023/07/20 04:50:15;;;;;;;67.97;29.38;;;24.50;69.00;;;;;;4986371;28;20077;-51
2023/07/20 04:52:41;;;;;;;57.35;27.63;;;24.50;69.10;;;;;;4986476;28;20030;-52
2023/07/20 04:55:07;;;;;;;70.57;27.27;;;24.50;69.10;;;;;;4985160;28;20033;-51
2023/07/20 04:57:32;;;;;;;61.35;28.08;;;24.50;69.10;;;;;;4987388;28;20373;-52
2023/07/20 04:59:58;;;;;;;68.75;28.42;;;24.40;69.10;;;;;;4987458;28;20050;-51
2023/07/20 05:02:23;;;;;;;62.63;27.38;;;24.40;69.90;;;;;;4986303;28;20022;-51
2023/07/20 05:04:49;;;;;;;59.78;25.10;;;24.40;69.40;;;;;;4985031;28;20045;-51
2023/07/20 05:07:14;;;;;;;75.53;25.92;;;24.40;69.50;;;;;;4986243;28;20031;-51
2023/07/20 05:09:40;;;;;;;86.82;22.17;;;24.40;69.50;;;;;;4986836;28;20045;-51
2023/07/20 05:12:06;;;;;;;62.88;19.92;;;24.40;69.60;;;;;;4986142;28;20038;-51
2023/07/20 05:14:32;;;;;;;58.15;20.00;;;24.40;69.70;;;;;;4986730;28;20031;-51
2023/07/20 05:16:57;;;;;;;63.50;21.25;;;24.40;69.70;;;;;;4986709;28;20018;-50
2023/07/20 05:19:24;;;;;;;53.60;19.70;;;24.30;69.50;;;;;;4986563;28;20039;-51
2023/07/20 05:21:50;;;;;;;49.92;18.85;;;24.40;69.40;;;;;;4985399;28;20027;-50
2023/07/20 05:24:15;;;;;;;51.95;17.25;;;24.40;69.40;;;;;;4968427;28;20062;-51
2023/07/20 05:26:41;;;;;;;44.03;17.20;;;24.30;69.40;;;;;;4985699;28;20023;-52
2023/07/20 05:29:06;;;;;;;32.33;12.48;;;24.40;69.50;;;;;;4985590;28;20027;-52
2023/07/20 05:31:32;;;;;;;33.88;10.00;;;24.30;69.50;;;;;;4985148;28;20042;-51
2023/07/20 05:33:58;;;;;;;32.17;11.18;;;24.30;69.50;;;;;;4966282;28;20561;-51
2023/07/20 05:36:27;;;;;;;39.55;10.73;;;24.30;69.50;;;;;;4968870;28;20106;-51
2023/07/20 05:38:52;;;;;;;27.40;8.05;;;24.30;69.60;;;;;;4985267;28;20033;-51
2023/07/20 05:41:18;;;;;;;24.27;7.88;;;24.20;69.50;;;;;;4984138;28;20031;-52
2023/07/20 05:43:44;;;;;;;21.40;6.05;;;24.20;69.60;;;;;;4985598;28;20019;-51
2023/07/20 05:46:09;;;;;;;26.65;7.25;;;24.20;69.50;;;;;;4986731;28;20506;-51
2023/07/20 05:48:35;;;;;;;40.35;8.57;;;24.20;69.60;;;;;;4985252;28;20030;-51
2023/07/20 05:51:01;;;;;;;48.50;8.45;;;24.10;69.70;;;;;;4983456;28;20083;-52
2023/07/20 05:53:26;;;;;;;44.53;9.05;;;24.10;69.80;;;;;;4986644;28;20081;-51
2023/07/20 05:55:55;;;;;;;38.95;6.93;;;24.10;70.10;;;;;;4985342;28;20035;-51
2023/07/20 05:58:21;;;;;;;30.00;6.80;;;24.10;70.00;;;;;;4986585;28;20031;-51
2023/07/20 06:00:50;;;;;;;27.70;5.40;;;24.00;70.10;;;;;;4968481;28;20074;-52
2023/07/20 06:03:21;;;;;;;33.70;5.50;;;24.00;70.10;;;;;;4966465;28;20075;-51
2023/07/20 06:05:46;;;;;;;27.83;5.97;;;24.00;70.20;;;;;;4986546;28;20045;-51
2023/07/20 06:08:12;;;;;;;32.22;5.55;;;24.00;70.20;;;;;;4983581;28;20027;-52
2023/07/20 06:10:38;;;;;;;27.55;5.75;;;24.00;70.10;;;;;;4986604;28;20043;-51
2023/07/20 06:13:04;;;;;;;30.20;5.93;;;24.00;70.10;;;;;;4984867;28;20035;-52
2023/07/20 06:15:35;;;;;;;32.63;5.28;;;24.00;70.10;;;;;;4986207;28;20065;-52
2023/07/20 06:18:01;;;;;;;25.23;4.82;;;24.00;70.20;;;;;;4985076;28;20097;-51
2023/07/20 06:20:26;;;;;;;22.70;4.35;;;24.00;70.20;;;;;;4986722;28;20031;-52
2023/07/20 06:22:52;;;;;;;28.27;4.57;;;24.00;70.10;;;;;;4989514;28;20034;-51
2023/07/20 06:25:17;;;;;;;19.85;3.58;;;24.00;70.00;;;;;;4989967;28;20026;-51
2023/07/20 06:27:44;;;;;;;16.58;3.70;;;24.00;70.00;;;;;;4988989;28;20045;-51
2023/07/20 06:30:10;;;;;;;16.88;3.75;;;23.90;69.80;;;;;;4968790;28;20031;-51
2023/07/20 06:32:35;;;;;;;15.38;3.08;;;23.90;69.70;;;;;;4988609;28;20026;-51
2023/07/20 06:35:01;;;;;;;12.68;2.80;;;23.90;69.70;;;;;;4988708;28;20066;-51
2023/07/20 06:37:27;;;;;;;11.77;2.65;;;23.90;69.50;;;;;;4989160;28;20536;-51
2023/07/20 06:39:52;;;;;;;14.98;3.22;;;23.90;69.40;;;;;;4988424;28;20537;-51
2023/07/20 06:42:18;;;;;;;15.00;2.92;;;24.00;69.30;;;;;;4988118;28;20027;-51
2023/07/20 06:44:43;;;;;;;8.60;2.10;;;24.00;69.20;;;;;;4987408;28;20070;-51
2023/07/20 06:47:09;;;;;;;9.75;2.70;;;23.90;69.00;;;;;;4987160;28;20086;-52
2023/07/20 06:49:35;;;;;;;17.48;3.35;;;23.90;68.90;;;;;;4989747;28;20023;-51
2023/07/20 06:52:01;;;;;;;10.10;2.42;;;23.90;68.80;;;;;;4989530;28;20074;-52
2023/07/20 06:54:26;;;;;;;8.63;2.58;;;23.90;68.80;;;;;;4988448;28;20039;-51
2023/07/20 06:56:52;;;;;;;9.40;2.38;;;23.90;68.80;;;;;;4972039;28;20501;-52
2023/07/20 06:59:18;;;;;;;7.50;2.10;;;23.80;68.90;;;;;;4985563;28;20110;-51
2023/07/20 07:01:43;;;;;;;6.45;2.10;;;23.80;68.90;;;;;;4978070;28;20034;-52
2023/07/20 07:04:09;;;;;;;9.43;2.38;;;23.80;69.00;;;;;;4972024;28;20058;-52
2023/07/20 07:06:36;;;;;;;10.13;2.30;;;23.80;69.10;;;;;;4988015;28;20388;-51
2023/07/20 07:09:03;;;;;;;4.10;1.67;;;23.80;69.00;;;;;;4988187;28;20023;-52
2023/07/20 07:11:28;;;;;;;8.68;2.00;;;23.80;69.00;;;;;;4987578;28;20037;-52
2023/07/20 07:13:54;;;;;;;7.82;1.80;;;23.80;69.20;;;;;;4989289;28;20091;-52
2023/07/20 07:16:20;;;;;;;8.05;2.05;;;23.80;69.90;;;;;;4989286;28;20407;-52
2023/07/20 07:18:46;;;;;;;6.95;2.08;;;23.80;69.30;;;;;;4985292;28;20027;-51
2023/07/20 07:21:11;;;;;;;5.25;1.95;;;23.80;69.40;;;;;;4985062;28;20031;-52
2023/07/20 07:23:38;;;;;;;7.35;2.75;;;23.80;69.40;;;;;;4987816;28;20034;-51
2023/07/20 07:26:04;;;;;;;5.65;2.13;;;23.80;69.50;;;;;;4989065;28;20493;-51
2023/07/20 07:28:29;;;;;;;8.52;2.63;;;23.80;69.60;;;;;;4987602;28;20030;-52
2023/07/20 07:30:56;;;;;;;6.93;1.88;;;23.80;69.70;;;;;;4986391;28;20058;-51
2023/07/20 07:33:22;;;;;;;7.45;2.67;;;23.80;69.90;;;;;;4985637;28;20038;-51
2023/07/20 07:35:48;;;;;;;8.02;2.30;;;23.80;70.00;;;;;;4977491;28;20031;-52
2023/07/20 07:38:14;;;;;;;11.02;2.58;;;23.80;70.10;;;;;;4969617;29;20047;-52
2023/07/20 07:40:40;;;;;;;5.22;2.42;;;23.80;70.30;;;;;;4980251;28;20035;-51
2023/07/20 07:43:05;;;;;;;12.35;2.90;;;23.80;70.40;;;;;;4969476;29;20031;-52
2023/07/20 07:45:34;;;;;;;13.57;3.00;;;23.90;70.40;;;;;;4969467;29;20031;-52
2023/07/20 07:47:59;;;;;;;13.48;3.65;;;23.90;70.50;;;;;;4969523;28;20050;-52
2023/07/20 07:50:25;;;;;;;18.70;3.35;;;23.90;70.70;;;;;;4973029;28;20047;-52
2023/07/20 07:52:50;;;;;;;15.45;3.13;;;23.90;70.70;;;;;;4961661;28;20042;-52
2023/07/20 07:55:17;;;;;;;16.27;3.70;;;23.90;70.60;;;;;;4961458;28;20865;-52
2023/07/20 07:57:43;;;;;;;21.85;4.15;;;23.90;70.50;;;;;;4956931;28;20059;-51
2023/07/20 08:00:14;;;;;;;22.38;4.00;;;23.90;71.30;;;;;;4958082;28;20063;-52
2023/07/20 08:02:42;;;;;;;20.38;3.30;;;24.00;70.70;;;;;;4958870;28;20058;-53
2023/07/20 08:05:08;;;;;;;17.35;3.40;;;24.00;70.50;;;;;;4956065;28;20044;-53
2023/07/20 08:07:33;;;;;;;12.93;3.10;;;24.00;70.50;;;;;;4939831;28;20726;-51
2023/07/20 08:10:00;;;;;;;18.05;3.28;;;24.00;70.50;;;;;;4958860;28;20126;-52
2023/07/20 08:12:26;;;;;;;10.48;3.60;;;24.00;70.50;;;;;;4957559;28;20050;-52
2023/07/20 08:14:51;;;;;;;16.80;3.55;;;24.00;70.50;;;;;;4959311;28;20051;-52
2023/07/20 08:17:17;;;;;;;18.55;3.53;;;24.00;70.50;;;;;;4958672;28;20039;-52
2023/07/20 08:19:44;;;;;;;15.68;3.90;;;24.10;70.40;;;;;;4959359;28;21050;-52
2023/07/20 08:22:09;;;;;;;20.20;3.90;;;24.10;70.40;;;;;;4957822;28;20105;-51
2023/07/20 08:24:38;;;;;;;19.52;3.85;;;24.10;70.00;;;;;;4956797;28;20039;-57
2023/07/20 08:27:04;;;;;;;24.88;4.55;;;24.10;69.90;;;;;;4958661;28;20054;-57
2023/07/20 08:29:29;;;;;;;30.13;4.45;;;24.20;70.10;;;;;;4958680;28;20649;-57
2023/07/20 08:31:55;;;;;;;39.67;5.60;;;24.20;70.10;;;;;;4944164;28;20387;-56
2023/07/20 08:34:21;;;;;;;28.73;4.50;;;24.20;70.20;;;;;;4956768;28;20041;-57
2023/07/20 08:36:46;;;;;;;32.85;5.65;;;24.20;70.00;;;;;;4956481;28;20448;-57
2023/07/20 08:39:12;;;;;;;26.63;4.35;;;24.20;69.90;;;;;;4960469;28;20023;-57
2023/07/20 08:41:37;;;;;;;27.25;4.68;;;24.20;69.80;;;;;;4939644;28;20031;-57
2023/07/20 08:44:03;;;;;;;22.15;3.30;;;24.20;69.60;;;;;;4954619;28;20281;-57
2023/07/20 08:46:29;;;;;;;20.67;3.90;;;24.20;69.40;;;;;;4957065;28;20207;-57
2023/07/20 08:48:54;;;;;;;24.95;4.32;;;24.20;69.30;;;;;;4960118;28;20067;-57
2023/07/20 08:51:20;;;;;;;27.00;4.85;;;24.20;69.40;;;;;;4956515;28;20066;-57
2023/07/20 08:53:46;;;;;;;43.63;5.53;;;24.20;69.20;;;;;;4957391;28;20053;-56
2023/07/20 08:56:11;;;;;;;22.90;5.00;;;24.20;69.00;;;;;;4940475;28;20346;-57
2023/07/20 08:58:37;;;;;;;42.92;5.85;;;24.30;69.10;;;;;;4941772;28;20097;-57
2023/07/20 09:01:03;;;;;;;45.45;6.43;;;24.30;69.00;;;;;;4956142;28;20038;-56
2023/07/20 09:03:28;;;;;;;31.40;6.43;;;24.30;68.70;;;;;;4959009;28;20526;-56
2023/07/20 09:05:54;;;;;;;49.63;6.35;;;24.30;68.70;;;;;;4963489;28;20043;-56
2023/07/20 09:08:19;;;;;;;20.35;3.92;;;24.40;68.70;;;;;;4957015;28;20058;-56
2023/07/20 09:10:45;;;;;;;27.63;5.90;;;24.40;68.60;;;;;;4955728;28;20658;-56
2023/07/20 09:13:15;;;;;;;35.67;5.20;;;24.40;68.30;;;;;;4957168;28;20507;-57
2023/07/20 09:15:47;;;;;;;35.00;5.53;;;24.40;68.30;;;;;;4956336;28;20047;-56
2023/07/20 09:18:12;;;;;;;19.13;4.45;;;24.50;68.50;;;;;;4957270;28;20038;-56
2023/07/20 09:20:38;;;;;;;27.75;4.78;;;24.50;68.50;;;;;;4973947;28;20027;-56
2023/07/20 09:23:06;;;;;;;38.75;5.80;;;24.50;68.40;;;;;;4985073;28;20026;-56
2023/07/20 09:25:32;;;;;;;29.70;4.72;;;24.50;68.20;;;;;;4983074;28;20066;-56
2023/07/20 09:27:59;;;;;;;30.38;5.38;;;24.50;68.10;;;;;;4980257;28;20035;-56
2023/07/20 09:30:25;;;;;;;25.20;5.25;;;24.50;68.50;;;;;;4996893;28;20035;-56
2023/07/20 09:32:51;;;;;;;28.98;5.03;;;24.60;67.80;;;;;;4984159;28;20089;-56
2023/07/20 09:35:17;;;;;;;29.17;4.60;;;24.60;67.70;;;;;;4975703;28;20039;-56
2023/07/20 09:37:47;;;;;;;28.10;4.68;;;24.60;67.50;;;;;;4981144;28;20420;-57
2023/07/20 09:40:15;;;;;;;33.92;4.45;;;24.60;67.60;;;;;;4982416;28;20558;-56
2023/07/20 09:42:40;;;;;;;24.00;4.85;;;24.60;67.60;;;;;;4984798;28;20113;-56
2023/07/20 09:45:10;;;;;;;42.15;4.63;;;24.70;67.60;;;;;;4980374;28;20078;-56
2023/07/20 09:47:39;;;;;;;25.42;4.38;;;24.70;67.40;;;;;;4984759;28;20045;-56
2023/07/20 09:50:11;;;;;;;23.33;4.57;;;24.70;67.40;;;;;;4981842;28;20035;-57
2023/07/20 09:52:40;;;;;;;35.03;5.95;;;24.70;67.40;;;;;;4968097;28;20035;-57
2023/07/20 09:55:11;;;;;;;26.92;5.10;;;24.70;67.30;;;;;;4984038;28;20046;-55
2023/07/20 09:57:36;;;;;;;40.08;5.75;;;24.70;67.20;;;;;;4959231;28;20038;-57
2023/07/20 10:00:08;;;;;;;46.13;6.22;;;24.80;67.30;;;;;;4986593;28;20031;-55
2023/07/20 10:02:34;;;;;;;28.80;5.18;;;24.80;67.30;;;;;;4969762;28;20031;-55
2023/07/20 10:05:01;;;;;;;33.63;5.18;;;24.80;67.20;;;;;;4963489;28;20183;-56
2023/07/20 10:07:27;;;;;;;43.85;5.38;;;24.70;67.10;;;;;;4988246;28;20034;-55
2023/07/20 10:09:53;;;;;;;45.72;5.97;;;24.70;67.00;;;;;;4986477;28;20037;-55
2023/07/20 10:12:19;;;;;;;50.58;5.43;;;24.70;66.70;;;;;;4982035;28;20039;-55
2023/07/20 10:14:52;;;;;;;28.75;4.72;;;24.70;67.40;;;;;;4979418;28;20163;-57
2023/07/20 10:17:18;;;;;;;20.33;4.28;;;24.70;66.70;;;;;;4970815;28;20039;-55
2023/07/20 10:19:48;;;;;;;40.03;5.30;;;24.60;66.80;;;;;;4983787;28;20108;-55
2023/07/20 10:22:25;;;;;;;51.88;7.15;;;24.60;67.00;;;;;;4981278;28;20027;-55
2023/07/20 10:24:53;;;;;;;44.75;5.75;;;24.60;67.10;;;;;;4986035;28;20046;-55
2023/07/20 10:27:22;;;;;;;27.25;4.88;;;24.70;67.20;;;;;;4978875;28;20393;-55
2023/07/20 10:29:48;;;;;;;25.15;4.90;;;24.70;66.90;;;;;;4986838;28;20035;-55
2023/07/20 10:32:13;;;;;;;31.75;4.75;;;24.70;66.80;;;;;;4983056;28;20118;-55
2023/07/20 10:34:39;;;;;;;28.30;4.68;;;24.70;66.70;;;;;;4965803;28;20043;-57
2023/07/20 10:37:04;;;;;;;24.13;3.90;;;24.70;66.80;;;;;;4986296;28;20030;-57
2023/07/20 10:39:34;;;;;;;34.35;4.28;;;24.70;66.80;;;;;;4988770;28;20042;-55
2023/07/20 10:42:04;;;;;;;41.95;6.25;;;24.80;66.80;;;;;;4984322;28;20030;-57
2023/07/20 10:44:30;;;;;;;54.92;6.32;;;24.80;66.50;;;;;;4980717;28;20050;-57
2023/07/20 10:47:00;;;;;;;37.10;5.03;;;24.80;66.50;;;;;;4984328;28;20046;-57
2023/07/20 10:49:26;;;;;;;42.38;5.82;;;24.90;66.60;;;;;;4986581;28;20065;-56
2023/07/20 10:52:12;;;;;;;30.08;5.35;;;24.90;66.50;;;;;;4980977;28;20058;-55
2023/07/20 10:54:47;;;;;;;;;;;24.90;66.50;;;;;;4983592;28;20065;-55
2023/07/20 10:57:31;;;;;;;23.08;4.55;;;25.00;66.20;;;;;;4986991;28;19910;-55
2023/07/20 11:00:11;;;;;;;36.00;4.75;;;25.00;66.20;;;;;;4983664;28;20078;-55
2023/07/20 11:02:47;;;;;;;26.42;4.88;;;25.10;66.20;;;;;;4984789;28;20479;-55
2023/07/20 11:05:42;;;;;;;33.17;4.88;;;25.10;66.10;;;;;;4988054;28;20035;-55
2023/07/20 11:08:11;;;;;;;26.23;3.78;;;25.20;66.00;;;;;;4989365;28;20037;-55
2023/07/20 11:10:37;;;;;;;21.27;3.67;;;25.30;65.50;;;;;;4987645;28;20098;-55
2023/07/20 11:13:22;;;;;;;13.80;3.80;;;25.30;65.20;;;;;;4989361;28;20038;-55
2023/07/20 11:15:57;;;;;;;12.20;3.13;;;25.30;65.30;;;;;;4988187;28;20039;-55
2023/07/20 11:18:25;;;;;;;28.08;4.57;;;25.40;65.10;;;;;;4984883;28;20023;-55
2023/07/20 11:20:51;;;;;;;14.25;3.25;;;25.40;65.00;;;;;;4988742;28;20031;-55
2023/07/20 11:23:17;;;;;;;25.15;4.32;;;25.40;65.00;;;;;;4985987;28;20065;-55
2023/07/20 11:25:42;;;;;;;14.02;3.45;;;25.50;65.00;;;;;;4987637;28;20098;-55
2023/07/20 11:28:10;;;;;;;19.70;3.60;;;25.60;64.90;;;;;;4986019;28;20023;-55
2023/07/20 11:30:36;;;;;;;25.92;4.38;;;25.60;64.80;;;;;;4989483;28;20097;-55
2023/07/20 11:33:02;;;;;;;17.98;3.50;;;25.70;64.50;;;;;;4970352;28;20056;-55
2023/07/20 11:35:28;;;;;;;27.50;4.15;;;25.80;64.40;;;;;;4986149;28;20164;-55
2023/07/20 11:37:53;;;;;;;32.92;5.22;;;25.90;64.20;;;;;;4982652;28;20042;-56
2023/07/20 11:40:19;;;;;;;24.60;4.40;;;26.00;64.10;;;;;;4964012;28;20028;-55
2023/07/20 11:42:45;;;;;;;32.00;4.30;;;26.00;64.00;;;;;;4987342;28;20031;-55
2023/07/20 11:45:11;;;;;;;30.05;3.97;;;26.10;63.80;;;;;;4983925;28;20034;-56
2023/07/20 11:47:40;;;;;;;25.50;5.15;;;26.20;63.70;;;;;;4966572;28;20027;-56
2023/07/20 11:50:06;;;;;;;31.60;4.38;;;26.30;63.70;;;;;;4982037;28;20038;-55
2023/07/20 11:52:31;;;;;;;27.30;4.50;;;26.40;63.40;;;;;;4966676;28;20034;-55
2023/07/20 11:54:57;;;;;;;28.13;4.32;;;26.50;63.30;;;;;;4984950;28;20031;-55
2023/07/20 11:57:23;;;;;;;21.02;4.07;;;26.50;63.00;;;;;;4984697;28;20034;-57
2023/07/20 12:00:08;;;;;;;27.02;4.80;;;26.60;63.10;;;;;;4983652;28;20042;-55
2023/07/20 12:02:34;;;;;;;19.55;3.85;;;26.70;62.90;;;;;;4983740;28;20035;-55
2023/07/20 12:04:59;;;;;;;38.63;4.60;;;26.70;62.80;;;;;;4971247;28;20550;-55
2023/07/20 12:07:28;;;;;;;23.08;4.43;;;26.80;62.70;;;;;;4982185;28;20043;-55
2023/07/20 12:10:11;;;;;;;20.70;3.80;;;26.80;62.70;;;;;;5001494;28;20038;-55
2023/07/20 12:12:42;;;;;;;24.08;4.93;;;26.80;62.40;;;;;;4985892;28;20023;-55
2023/07/20 12:15:17;;;;;;;24.60;3.95;;;26.80;62.50;;;;;;4982775;28;20121;-56
2023/07/20 12:17:48;;;;;;;29.00;4.70;;;26.80;62.50;;;;;;4980051;28;20467;-56
2023/07/20 12:20:35;;;;;;;16.30;3.55;;;26.80;62.20;;;;;;4986190;28;20030;-56
2023/07/20 12:23:01;;;;;;;19.05;3.40;;;26.80;62.20;;;;;;4991898;28;20588;-56
2023/07/20 12:25:55;;;;;;;25.38;3.88;;;26.80;62.00;;;;;;4985250;28;20031;-55
2023/07/20 12:28:20;;;;;;;19.33;3.45;;;26.70;61.80;;;;;;4967898;28;20108;-55
2023/07/20 12:30:46;;;;;;;14.77;3.75;;;26.80;61.80;;;;;;4986961;28;20113;-55
2023/07/20 12:33:15;;;;;;;22.58;4.47;;;26.80;61.60;;;;;;4985589;28;20046;-55
2023/07/20 12:35:40;;;;;;;26.45;4.28;;;26.90;61.50;;;;;;4978576;28;20037;-55
2023/07/20 12:38:06;;;;;;;39.72;4.70;;;27.00;61.70;;;;;;4983176;28;20103;-55